createdAt,value
2023-04-12T00:03:00.297Z,99888.81
2023-04-12T00:08:02.372Z,99881.19
2023-04-12T00:13:05.551Z,99876.91
2023-04-12T00:18:06.935Z,99872.91
2023-04-12T00:23:05.227Z,99861.03
2023-04-12T00:28:06.278Z,99850.09
2023-04-12T00:33:05.038Z,99845.03
2023-04-12T00:38:11.210Z,99846.47
2023-04-12T00:43:18.439Z,99830.19
2023-04-12T00:48:19.531Z,99815.84
2023-04-12T00:53:22.988Z,99825.44
2023-04-12T00:58:26.161Z,99839.28
2023-04-12T01:03:24.700Z,99818.22
2023-04-12T01:08:44.637Z,99832.63
2023-04-12T01:13:53.435Z,99795.25
2023-04-12T01:18:59.846Z,99822.59
2023-04-12T01:24:14.898Z,99807.66
2023-04-12T01:29:15.811Z,99813.50
2023-04-12T01:34:17.317Z,99840.19
2023-04-12T01:39:23.814Z,99799.75
2023-04-12T01:44:25.897Z,99813.38
2023-04-12T01:49:34.794Z,99811.00
2023-04-12T01:54:39.603Z,99810.47
2023-04-12T01:59:46.857Z,99790.69
2023-04-12T02:04:46.848Z,99802.78
2023-04-12T02:09:45.810Z,99809.25
2023-04-12T02:14:45.040Z,99809.09
2023-04-12T02:19:49.676Z,99806.50
2023-04-12T02:24:51.167Z,99829.63
2023-04-12T02:30:02.326Z,99818.75
2023-04-12T02:35:04.032Z,99808.00
2023-04-12T02:40:06.532Z,99772.88
2023-04-12T02:45:06.386Z,99817.69
2023-04-12T02:50:09.635Z,99815.25
2023-04-12T02:55:18.468Z,99811.41
2023-04-12T03:00:17.852Z,99815.22
2023-04-12T03:05:22.736Z,99780.66
2023-04-12T03:10:24.858Z,99819.53
2023-04-12T03:15:34.832Z,99795.97
2023-04-12T03:20:34.270Z,99783.31
2023-04-12T03:25:38.713Z,99788.69
2023-04-12T03:31:01.600Z,99807.94
2023-04-12T03:36:13.540Z,99800.97
2023-04-12T03:41:16.480Z,99797.78
2023-04-12T03:46:18.416Z,99781.22
2023-04-12T03:51:30.900Z,99798.84
2023-04-12T03:56:36.762Z,99799.38
2023-04-12T04:01:42.118Z,99820.84
2023-04-12T04:06:43.077Z,99794.81
2023-04-12T04:11:46.142Z,99819.88
2023-04-12T04:16:46.922Z,99811.09
2023-04-12T04:21:48.064Z,99791.56
2023-04-12T04:26:48.286Z,99823.84
2023-04-12T04:32:00.500Z,99815.41
2023-04-12T04:36:59.603Z,99829.13
2023-04-12T04:42:01.356Z,99813.06
2023-04-12T04:47:25.205Z,99859.84
2023-04-12T04:52:25.752Z,99825.63
2023-04-12T04:57:33.468Z,99821.78
2023-04-12T05:02:37.276Z,99844.06
2023-04-12T05:07:38.783Z,99823.63
2023-04-12T05:12:37.924Z,99849.78
2023-04-12T05:17:38.276Z,99847.72
2023-04-12T05:22:40.966Z,99861.06
2023-04-12T05:27:42.281Z,99846.38
2023-04-12T05:32:50.534Z,99848.50
2023-04-12T05:37:54.245Z,99858.91
2023-04-12T05:42:55.116Z,99841.19
2023-04-12T05:47:56.356Z,99879.28
2023-04-12T05:52:55.668Z,99824.19
2023-04-12T05:57:58.816Z,99842.34
2023-04-12T06:02:58.681Z,99843.28
2023-04-12T06:08:00.137Z,99860.16
2023-04-12T06:12:58.291Z,99825.25
2023-04-12T06:18:00.639Z,99822.56
2023-04-12T06:23:01.963Z,99843.16
2023-04-12T06:28:03.637Z,99848.63
2023-04-12T06:33:04.266Z,99863.44
2023-04-12T06:38:06.210Z,99844.28
2023-04-12T06:43:08.469Z,99831.47
2023-04-12T06:48:11.153Z,99834.88
2023-04-12T06:53:10.516Z,99835.75
2023-04-12T06:58:10.255Z,99841.09
2023-04-12T07:03:09.477Z,99835.66
2023-04-12T07:08:16.102Z,99803.88
2023-04-12T07:13:15.326Z,99849.59
2023-04-12T07:18:13.685Z,99843.41
2023-04-12T07:24:14.423Z,99853.47
2023-04-12T07:35:52.402Z,99851.28
2023-04-12T07:41:17.472Z,99855.22
2023-04-12T07:46:19.455Z,99838.22
2023-04-12T07:51:18.890Z,99847.31
2023-04-12T07:56:21.817Z,99865.00
2023-04-12T08:01:22.326Z,99824.47
2023-04-12T08:06:22.967Z,99853.41
2023-04-12T08:11:22.904Z,99834.41
2023-04-12T08:16:22.942Z,99858.03
2023-04-12T08:21:25.087Z,99821.72
2023-04-12T08:26:26.709Z,99870.44
2023-04-12T08:31:26.430Z,99840.31
2023-04-12T08:36:27.507Z,99833.25
2023-04-12T08:41:28.911Z,99837.13
2023-04-12T08:46:30.283Z,99860.72
2023-04-12T08:51:33.301Z,99847.91
2023-04-12T08:56:31.739Z,99832.06
2023-04-12T09:01:34.344Z,99817.84
2023-04-12T09:06:35.084Z,99859.63
2023-04-12T09:11:36.295Z,99828.44
2023-04-12T09:16:40.759Z,99833.47
2023-04-12T09:21:54.014Z,99839.75
2023-04-12T09:27:07.454Z,99829.31
2023-04-12T09:32:11.953Z,99839.16
2023-04-12T09:37:17.131Z,99842.53
2023-04-12T09:42:32.516Z,99823.28
2023-04-12T09:47:40.543Z,99834.97
2023-04-12T09:52:39.381Z,99816.44
2023-04-12T09:57:42.697Z,99843.44
2023-04-12T10:02:44.861Z,99832.13
2023-04-12T10:07:47.701Z,99845.44
2023-04-12T10:12:48.133Z,99835.13
2023-04-12T10:18:49.848Z,99844.75
2023-04-12T10:23:52.050Z,99820.94
2023-04-12T10:29:33.931Z,99844.50
2023-04-12T10:34:32.876Z,99854.34
2023-04-12T10:39:47.600Z,99864.97
2023-04-12T10:44:47.461Z,99865.09
2023-04-12T10:50:25.331Z,99859.00
2023-04-12T10:55:36.288Z,99859.41
2023-04-12T11:00:59.561Z,99866.03
2023-04-12T11:06:20.196Z,99848.19
2023-04-12T11:11:42.580Z,99859.00
2023-04-12T11:17:07.530Z,99860.31
2023-04-12T11:22:07.636Z,99842.78
2023-04-12T11:27:07.112Z,99839.31
2023-04-12T11:32:10.263Z,99854.56
2023-04-12T11:37:09.986Z,99857.81
2023-04-12T11:42:22.370Z,99836.94
2023-04-12T11:47:24.242Z,99861.25
2023-04-12T11:52:34.118Z,99851.78
2023-04-12T11:57:34.416Z,99842.72
2023-04-12T12:02:41.232Z,99845.94
2023-04-12T12:07:46.388Z,99841.78
2023-04-12T12:12:45.672Z,99842.09
2023-04-12T12:17:44.275Z,99845.19
2023-04-12T12:22:47.978Z,99865.38
2023-04-12T12:27:50.827Z,99837.97
2023-04-12T12:32:52.588Z,99857.50
2023-04-12T12:37:59.870Z,99856.50
2023-04-12T12:43:01.511Z,99867.34
2023-04-12T12:48:04.180Z,99831.34
2023-04-12T12:53:07.044Z,99845.06
2023-04-12T12:58:07.316Z,99844.81
2023-04-12T13:03:12.425Z,99869.16
2023-04-12T13:08:23.889Z,99863.69
2023-04-12T13:13:34.785Z,99840.16
2023-04-12T13:18:34.408Z,99865.69
2023-04-12T13:23:36.113Z,99849.06
2023-04-12T13:28:40.762Z,99839.22
2023-04-12T13:33:43.726Z,99861.03
2023-04-12T13:38:43.074Z,99852.19
2023-04-12T13:43:45.700Z,99842.56
2023-04-12T13:48:43.659Z,99855.28
2023-04-12T13:53:45.107Z,99851.41
2023-04-12T13:58:46.045Z,99861.06
2023-04-12T14:03:47.084Z,99874.63
2023-04-12T14:08:50.184Z,99846.75
2023-04-12T14:13:51.092Z,99864.63
2023-04-12T14:18:51.041Z,99880.66
2023-04-12T14:23:51.727Z,99905.97
2023-04-12T14:28:57.499Z,99877.00
2023-04-12T14:33:57.761Z,99876.16
2023-04-12T14:39:10.448Z,99879.53
2023-04-12T14:44:12.654Z,99876.06
2023-04-12T14:49:14.751Z,99884.38
2023-04-12T14:54:15.724Z,99890.94
2023-04-12T14:59:16.813Z,99898.88
2023-04-12T15:04:18.210Z,99878.59
2023-04-12T15:09:17.857Z,99915.81
2023-04-12T15:14:20.638Z,99886.59
2023-04-12T15:19:23.425Z,99891.31
2023-04-12T15:24:25.442Z,99911.13
2023-04-12T15:29:24.740Z,99913.28
2023-04-12T15:34:25.357Z,99899.56
2023-04-12T15:39:23.872Z,99907.63
2023-04-12T15:44:25.781Z,99908.53
2023-04-12T15:49:26.724Z,99928.22
2023-04-12T15:54:44.165Z,99908.66
2023-04-12T15:59:43.358Z,99918.81
2023-04-12T16:04:43.416Z,99920.56
2023-04-12T16:09:44.666Z,99916.09
2023-04-12T16:14:45.957Z,99938.16
2023-04-12T16:19:44.668Z,99936.91
2023-04-12T16:24:43.237Z,99952.31
2023-04-12T16:29:43.105Z,99942.00
2023-04-12T16:34:43.404Z,99960.31
2023-04-12T16:40:05.745Z,99963.38
2023-04-12T16:45:05.003Z,99968.13
2023-04-12T16:50:14.388Z,99939.38
2023-04-12T16:55:13.215Z,99966.78
2023-04-12T17:00:21.133Z,99972.25
2023-04-12T17:05:23.022Z,99988.75
2023-04-12T17:10:33.185Z,99995.97
2023-04-12T17:15:35.212Z,100022.66
2023-04-12T17:20:59.117Z,99987.34
2023-04-12T17:25:58.310Z,100000.97
2023-04-12T17:31:18.751Z,100006.56
2023-04-12T17:42:02.213Z,100025.47
2023-04-12T17:47:14.048Z,100002.22
2023-04-12T17:52:17.277Z,100024.13
2023-04-12T17:57:18.800Z,100040.78
2023-04-12T18:02:19.708Z,100025.63
2023-04-12T18:07:20.315Z,100038.16
2023-04-12T18:12:20.539Z,100058.22
2023-04-12T18:17:31.462Z,100038.16
2023-04-12T18:22:31.686Z,100043.56
2023-04-12T18:27:32.887Z,100038.44
2023-04-12T18:32:35.368Z,100052.91
2023-04-12T18:37:38.187Z,100056.56
2023-04-12T18:42:40.219Z,100051.41
2023-04-12T18:47:39.338Z,100054.16
2023-04-12T18:52:46.356Z,100073.94
2023-04-12T18:57:48.481Z,100070.44
2023-04-12T19:02:52.016Z,100075.28
2023-04-12T19:07:53.213Z,100110.25
2023-04-12T19:12:54.773Z,100096.72
2023-04-12T19:17:59.975Z,100098.50
2023-04-12T19:23:02.200Z,100101.00
2023-04-12T19:28:02.562Z,100099.06
2023-04-12T19:33:04.615Z,100116.19
2023-04-12T19:38:13.370Z,100091.00
2023-04-12T19:43:21.230Z,100113.53
2023-04-12T19:48:20.262Z,100090.72
2023-04-12T19:53:24.548Z,100113.03
2023-04-12T19:58:25.057Z,100112.78
2023-04-12T20:03:29.120Z,100134.81
2023-04-12T20:08:29.816Z,100117.75
2023-04-12T20:13:40.979Z,100144.16
2023-04-12T20:18:49.088Z,100130.03
2023-04-12T20:23:55.233Z,100118.06
2023-04-12T20:29:02.474Z,100122.47
2023-04-12T20:34:04.287Z,100145.44
2023-04-12T20:39:07.923Z,100126.47
2023-04-12T20:44:19.253Z,100157.53
2023-04-12T20:49:33.747Z,100152.22
2023-04-12T20:54:44.066Z,100174.38
2023-04-12T21:00:19.404Z,100187.16
2023-04-12T21:05:19.308Z,100155.50
2023-04-12T21:10:25.237Z,100184.50
2023-04-12T21:15:42.337Z,100170.16
2023-04-12T21:20:58.872Z,100173.84
2023-04-12T21:26:02.909Z,100182.00
2023-04-12T21:36:43.433Z,100174.97
2023-04-12T21:41:49.655Z,100192.22
2023-04-12T21:47:10.516Z,100167.25
2023-04-12T21:52:47.807Z,100213.03
2023-04-12T21:57:53.322Z,100191.28
2023-04-12T22:02:55.275Z,100209.47
2023-04-12T22:08:02.656Z,100202.28
2023-04-12T22:13:14.505Z,100188.09
2023-04-12T22:18:46.556Z,100181.63
2023-04-12T22:23:46.439Z,100193.94
2023-04-12T22:29:00.970Z,100221.25
2023-04-12T22:34:12.091Z,100192.50
2023-04-12T22:39:20.892Z,100187.66
2023-04-12T22:44:40.322Z,100183.38
2023-04-12T22:49:53.728Z,100207.34
2023-04-12T22:54:56.319Z,100218.72
2023-04-12T22:59:55.153Z,100210.94
2023-04-12T23:04:57.125Z,100212.19
2023-04-12T23:09:59.294Z,100211.25
2023-04-12T23:14:58.543Z,100193.72
2023-04-12T23:19:57.999Z,100227.59
2023-04-12T23:25:00.274Z,100233.44
2023-04-12T23:29:59.162Z,100220.66
2023-04-12T23:35:05.659Z,100224.13
2023-04-12T23:40:12.853Z,100210.56
2023-04-12T23:45:12.887Z,100223.72
2023-04-12T23:50:14.846Z,100234.06
2023-04-12T23:55:18.490Z,100241.06
